地図

経路データ

SID SEASON NUMBER BASIN SUBBASIN NAME ISO_TIME NATURE LAT LON WMO_WIND WMO_PRES WMO_AGENCY TRACK_TYPE DIST2LAND LANDFALL IFLAG USA_AGENCY USA_ATCF_ID USA_LAT USA_LON USA_RECORD USA_STATUS USA_WIND USA_PRES USA_SSHS USA_R34_NE USA_R34_SE USA_R34_SW USA_R34_NW USA_R50_NE USA_R50_SE USA_R50_SW USA_R50_NW USA_R64_NE USA_R64_SE USA_R64_SW USA_R64_NW USA_POCI USA_ROCI USA_RMW USA_EYE TOKYO_LAT TOKYO_LON TOKYO_GRADE TOKYO_WIND TOKYO_PRES TOKYO_R50_DIR TOKYO_R50_LONG TOKYO_R50_SHORT TOKYO_R30_DIR TOKYO_R30_LONG TOKYO_R30_SHORT TOKYO_LAND CMA_LAT CMA_LON CMA_CAT CMA_WIND CMA_PRES HKO_LAT HKO_LON HKO_CAT HKO_WIND HKO_PRES NEWDELHI_LAT NEWDELHI_LON NEWDELHI_GRADE NEWDELHI_WIND NEWDELHI_PRES NEWDELHI_CI NEWDELHI_DP NEWDELHI_POCI REUNION_LAT REUNION_LON REUNION_TYPE REUNION_WIND REUNION_PRES REUNION_TNUM REUNION_CI REUNION_RMW REUNION_R34_NE REUNION_R34_SE REUNION_R34_SW REUNION_R34_NW REUNION_R50_NE REUNION_R50_SE REUNION_R50_SW REUNION_R50_NW REUNION_R64_NE REUNION_R64_SE REUNION_R64_SW REUNION_R64_NW BOM_LAT BOM_LON BOM_TYPE BOM_WIND BOM_PRES BOM_TNUM BOM_CI BOM_RMW BOM_R34_NE BOM_R34_SE BOM_R34_SW BOM_R34_NW BOM_R50_NE BOM_R50_SE BOM_R50_SW BOM_R50_NW BOM_R64_NE BOM_R64_SE BOM_R64_SW BOM_R64_NW BOM_ROCI BOM_POCI BOM_EYE BOM_POS_METHOD BOM_PRES_METHOD NADI_LAT NADI_LON NADI_CAT NADI_WIND NADI_PRES WELLINGTON_LAT WELLINGTON_LON WELLINGTON_WIND WELLINGTON_PRES DS824_LAT DS824_LON DS824_STAGE DS824_WIND DS824_PRES TD9636_LAT TD9636_LON TD9636_STAGE TD9636_WIND TD9636_PRES TD9635_LAT TD9635_LON TD9635_WIND TD9635_PRES TD9635_ROCI NEUMANN_LAT NEUMANN_LON NEUMANN_CLASS NEUMANN_WIND NEUMANN_PRES MLC_LAT MLC_LON MLC_CLASS MLC_WIND MLC_PRES USA_GUST BOM_GUST BOM_GUST_PER REUNION_GUST REUNION_GUST_PER USA_SEAHGT USA_SEARAD_NE USA_SEARAD_SE USA_SEARAD_SW USA_SEARAD_NW STORM_SPEED STORM_DIR
1977118S08134 1977 37 SI WA VERNA 1977-04-28 00:00:00 TS -7.52000 134.360 20 1005 bom main 70 70 O_____O__OO___ jtwc_sh SH251977 -7.00000 134.000 25 -1 -8.30000 134.900 20 20 1005 1.00000 -7.00000 134.000 TC 25 -7.00000 134.000 1 25 45 45 4 190
1977118S08134 1977 37 SI WA VERNA 1977-04-28 03:00:00 TS -7.71082 134.320 main 90 90 P_____P__PP___ SH251977 -7.24750 134.070 25 -1 -8.39749 134.723 20 20 1005 -7.24750 134.070 TC 25 -7.26411 134.016 1 25 4 192
1977118S08134 1977 37 SI WA VERNA 1977-04-28 06:00:00 TS -7.94173 134.273 20 1005 bom main 112 112 O_____O__OP_O_ jtwc_sh SH251977 -7.50000 134.100 25 -1 -8.50000 134.500 20 20 1005 1.00000 -7.50000 134.100 TC 25 -7.52258 134.025 1 25 -8.50000 134.700 TC 20 1005 45 45 5 202
1977118S08134 1977 37 SI WA VERNA 1977-04-28 09:00:00 TS -8.14656 134.143 main 134 134 P_____P__PP_P_ SH251977 -7.75750 134.065 25 -1 -8.60752 134.208 20 22 1004 -7.75750 134.065 TC 25 -7.76976 134.022 1 25 -8.61256 134.435 TC 22 1004 5 216
1977118S08134 1977 37 SI WA VERNA 1977-04-28 12:00:00 TS -8.33478 133.991 25 1003 bom main 158 158 O_____O__OO_O_ jtwc_sh SH251977 -8.00000 134.000 25 -1 -8.70000 133.900 20 25 1003 1.50000 -8.00000 134.000 TC 25 -8.00000 134.000 1 25 -8.70000 134.200 TC 25 1003 45 45 4 219
1977118S08134 1977 37 SI WA VERNA 1977-04-28 15:00:00 TS -8.48141 133.865 main 182 182 P_____P__PP_P_ SH251977 -8.21498 133.972 25 -1 -8.74997 133.642 20 25 1002 -8.21498 133.972 TC 25 -8.20862 133.952 1 26 -8.74995 134.007 TC 25 1002 4 226
1977118S08134 1977 37 SI WA VERNA 1977-04-28 18:00:00 TS -8.59913 133.710 25 1001 bom main 198 198 O_____O__OP_O_ jtwc_sh SH251977 -8.40000 133.900 25 -1 -8.80000 133.400 20 25 1001 2.00000 -8.40000 133.900 TC 25 -8.39477 133.862 1 27 -8.80000 133.800 TC 25 1001 45 45 4 235
1977118S08134 1977 37 SI WA VERNA 1977-04-28 21:00:00 TS -8.72765 133.506 main 215 215 P_____P__PP_P_ SH251977 -8.56497 133.745 27 -1 -8.89247 133.157 20 27 1000 -8.56497 133.745 TC 27 -8.55855 133.717 1 28 -8.89251 133.515 TC 27 1000 5 241
1977118S08134 1977 37 SI WA VERNA 1977-04-29 00:00:00 TS -8.85000 133.250 30 999 bom main 230 208 O_____O__OO_O_ jtwc_sh SH251977 -8.70000 133.500 30 -1 -9.00000 132.900 20 30 999 2.50000 -8.70000 133.500 TC 30 -8.70000 133.500 1 30 -9.00000 133.200 TC 30 999 45 45 6 247
1977118S08134 1977 37 SI WA VERNA 1977-04-29 03:00:00 TS -8.95743 132.951 main 214 180 P_____P__PP_P_ SH251977 -8.80750 133.180 30 -1 -9.09997 132.615 20 30 998 -8.80750 133.180 TC 30 -8.82967 133.217 1 31 -9.09998 132.900 TC 32 998 7 252
1977118S08134 1977 37 SI WA VERNA 1977-04-29 06:00:00 TS -9.05624 132.610 30 997 bom main 188 165 O_____O__OP_O_ jtwc_sh SH251977 -8.90000 132.800 30 -1 -9.20000 132.300 20 30 997 2.50000 -8.90000 132.800 TC 30 -8.93743 132.862 1 32 -9.20000 132.600 TC 35 997 45 45 7 254
1977118S08134 1977 37 SI WA VERNA 1977-04-29 09:00:00 TS -9.15434 132.263 main 173 149 P_____P__PP_P_ SH251977 -9.00740 132.430 32 -1 -9.29244 131.972 20 32 996 -9.00740 132.430 TC 32 -9.02647 132.452 1 33 -9.29991 132.322 TC 37 996 8 255
1977118S08134 1977 37 SI WA VERNA 1977-04-29 12:00:00 TS -9.25000 131.867 35 995 bom main 149 146 O_____O__OO_O_ jtwc_sh SH251977 -9.10000 132.000 35 0 -9.40000 131.600 30 35 995 3.00000 -9.10000 132.000 TC 35 -9.10000 132.000 2 35 -9.40000 132.000 TC 40 995 49 49 9 258
1977118S08134 1977 37 SI WA VERNA 1977-04-29 15:00:00 TS -9.33790 131.387 main 146 145 P_____P__PP_P_ SH251977 -9.15757 131.457 35 0 -9.53496 131.172 30 37 994 -9.15757 131.457 TC 35 -9.16485 131.475 2 36 -9.47746 131.587 TC 40 994 10 259
1977118S08134 1977 37 SI WA VERNA 1977-04-29 18:00:00 TS -9.43595 130.871 40 993 bom main 158 158 O_____O__OP_O_ jtwc_sh SH251977 -9.20000 130.900 35 0 -9.70000 130.700 30 40 993 3.00000 -9.20000 130.900 TC 35 -9.21570 130.925 2 37 -9.60000 131.100 TC 40 993 55 55 11 257
1977118S08134 1977 37 SI WA VERNA 1977-04-29 21:00:00 TS -9.57441 130.342 main 191 184 P_____P__PP_P_ SH251977 -9.25001 130.390 37 0 -9.91509 130.170 30 45 990 -9.25001 130.390 TC 37 -9.25861 130.413 2 38 -9.85766 130.520 TC 45 990 10 255
1977118S08134 1977 37 SI WA VERNA 1977-04-30 00:00:00 TS -9.70000 129.900 50 988 bom main 190 187 O_____O__OO_O_ jtwc_sh SH251977 -9.30000 130.000 40 0 -10.1000 129.700 30 50 988 3.50000 -9.30000 130.000 TC 40 -9.30000 130.000 2 40 -10.1000 130.000 TC 50 988 69 69 7 254
1977118S08134 1977 37 SI WA VERNA 1977-04-30 03:00:00 TS -9.76403 129.651 main 187 187 P_____P__PP_P_ SH251977 -9.34990 129.797 42 0 -10.1799 129.412 30 50 986 -9.34990 129.797 TC 42 -9.33734 129.779 2 42 -10.1873 129.705 TC 52 986 4 257
1977118S08134 1977 37 SI WA VERNA 1977-04-30 06:00:00 TS -9.79616 129.493 50 985 bom main 194 194 O_____O__OP_O_ jtwc_sh SH251977 -9.40000 129.700 45 0 -10.2000 129.200 30 50 985 3.50000 -9.40000 129.700 TC 45 -9.37694 129.660 2 45 -10.2000 129.500 TC 55 985 69 69 3 260
1977118S08134 1977 37 SI WA VERNA 1977-04-30 09:00:00 TS -9.82258 129.324 main 204 204 P_____P__PP_P_ SH251977 -9.44246 129.615 47 0 -10.2075 128.942 30 52 983 -9.44246 129.615 TC 47 -9.42810 129.586 2 47 -10.2075 129.242 TC 57 983 3 261
1977118S08134 1977 37 SI WA VERNA 1977-04-30 12:00:00 TS -9.85000 129.150 55 982 bom main 209 200 O_____O__OO_O_ jtwc_sh SH251977 -9.50000 129.500 50 0 -10.2000 128.700 30 55 982 4.00000 -9.50000 129.500 TC 50 -9.50000 129.500 2 50 -10.2000 129.000 TC 60 982 75 75 4 260
1977118S08134 1977 37 SI WA VERNA 1977-04-30 15:00:00 TS -9.89388 128.926 main 220 220 P_____P__PP_P_ SH251977 -9.58505 129.258 52 0 -10.1925 128.485 30 57 980 -9.58505 129.258 TC 52 -9.61575 129.273 2 52 -10.1925 128.800 TC 62 980 5 256
1977118S08134 1977 37 SI WA VERNA 1977-04-30 18:00:00 TS -9.95836 128.705 60 978 bom main 226 219 O_____O__OP_O_ jtwc_sh SH251977 -9.70000 129.000 55 0 -10.2000 128.300 30 60 978 4.00000 -9.70000 129.000 TC 55 -9.75017 129.033 2 55 -10.2000 128.600 TC 65 978 84 84 5 251
1977118S08134 1977 37 SI WA VERNA 1977-04-30 21:00:00 TS -10.0420 128.486 main 219 219 P_____P__PP_P_ SH251977 -9.85749 128.805 57 0 -10.2125 128.090 30 65 975 -9.85749 128.805 TC 57 -9.88448 128.826 2 57 -10.2276 128.298 TC 67 975 4 240
1977118S08134 1977 37 SI WA VERNA 1977-05-01 00:00:00 TS -10.1500 128.367 70 973 bom main 219 219 O_____O__OO_O_ jtwc_sh SH251977 -10.0000 128.700 60 0 -10.3000 128.000 40 70 973 4.50000 -10.0000 128.700 TC 60 -10.0000 128.700 2 60 -10.3000 128.100 TC 70 973 99 99 3 192
1977118S08134 1977 37 SI WA VERNA 1977-05-01 03:00:00 TS -10.2867 128.426 main 229 205 P_____P__PP_P_ SH251977 -10.0650 128.705 60 0 -10.5500 128.140 40 62 977 -10.0650 128.705 TC 60 -10.0552 128.702 2 60 -10.4350 128.167 TC 65 976 4 139
1977118S08134 1977 37 SI WA VERNA 1977-05-01 06:00:00 TS -10.4154 128.598 55 982 bom main 205 180 O_____O__OP_O_ jtwc_sh SH251977 -10.1000 128.800 60 0 -10.8000 128.400 30 55 982 4.00000 -10.1000 128.800 TC 60 -10.0924 128.788 2 60 -10.6000 128.400 TC 60 980 75 75 4 118
1977118S08134 1977 37 SI WA VERNA 1977-05-01 09:00:00 TS -10.4843 128.799 main 180 164 P_____P__PP_P_ SH251977 -10.1350 128.935 60 0 -10.8725 128.650 30 52 985 -10.1350 128.935 TC 60 -10.1334 128.930 2 60 -10.7576 128.692 TC 55 983 4 108
1977118S08134 1977 37 SI WA VERNA 1977-05-01 12:00:00 TS -10.5500 129.017 50 989 bom main 164 132 O_____O__OO_O_ jtwc_sh SH251977 -10.2000 129.100 60 0 -10.9000 128.900 30 50 989 3.50000 -10.2000 129.100 TC 60 -10.2000 129.100 2 60 -10.9000 129.000 TC 50 987 69 69 4 116
1977118S08134 1977 37 SI WA VERNA 1977-05-01 15:00:00 TS -10.6741 129.186 main 132 117 P_____P__PP_P_ SH251977 -10.3350 129.243 60 0 -11.0075 129.115 30 45 992 -10.3350 129.243 TC 60 -10.3371 129.193 2 58 -11.0224 129.208 TC 45 990 4 126
1977118S08134 1977 37 SI WA VERNA 1977-05-01 18:00:00 TS -10.7868 129.350 40 995 bom main 109 93 O_____O__OP_O_ jtwc_sh SH251977 -10.5000 129.400 60 0 -11.1000 129.300 30 40 995 3.00000 -10.5000 129.400 TC 60 -10.4994 129.315 2 57 -11.1000 129.400 TC 40 994 55 55 4 120
1977118S08134 1977 37 SI WA VERNA 1977-05-01 21:00:00 TS -10.8702 129.529 main 93 78 P_____P__PP_P_ SH251977 -10.6574 129.563 57 0 -11.1252 129.480 30 35 997 -10.6574 129.563 TC 57 -10.6619 129.505 2 56 -11.1176 129.635 TC 37 996 4 111
1977118S08134 1977 37 SI WA VERNA 1977-05-02 00:00:00 TS -10.9286 129.729 30 999 bom main 78 55 O_____O__OO_O_ jtwc_sh SH251977 -10.8000 129.800 55 0 -11.1000 129.600 20 30 999 2.50000 -10.8000 129.800 TC 55 -10.8000 129.800 2 55 -11.1000 129.900 TC 35 998 45 45 4 103
1977118S08134 1977 37 SI WA VERNA 1977-05-02 03:00:00 TS -10.9632 129.943 main 55 46 P_____P__PP___ SH251977 -10.9223 130.125 50 0 -11.0384 129.619 20 -10.9223 130.125 TC 50 -10.8947 130.225 2 50 TC 4 95
1977118S08134 1977 37 SI WA VERNA 1977-05-02 06:00:00 TS -10.9664 130.129 main 46 44 O_____P__OP___ jtwc_sh SH251977 -11.0000 130.600 45 0 -10.9468 129.540 20 -11.0000 130.600 TC 45 -10.9516 130.757 2 45 3 77
1977118S08134 1977 37 SI WA VERNA 1977-05-02 09:00:00 TS -10.9051 130.196 main 55 55 P_____P__PP___ SH251977 -11.0180 131.250 40 0 -10.8292 129.377 20 -11.0180 131.250 TC 40 -10.9827 131.361 2 40 3 313
1977118S08134 1977 37 SI WA VERNA 1977-05-02 12:00:00 TS -10.7745 129.923 main 74 74 O_____P__OO___ jtwc_sh SH251977 -11.0000 132.000 35 0 -10.6899 129.145 20 -11.0000 132.000 TC 35 -11.0000 132.000 2 35 14 286
1977118S08134 1977 37 SI WA VERNA 1977-05-02 15:00:00 TS -10.5331 128.857 main 172 172 ______P_______ SH251977 -1 -10.5331 128.857 20 TC 2 14 287
1977118S08134 1977 37 SI WA VERNA 1977-05-02 18:00:00 TS -10.3630 128.527 main 213 213 ______P_______ -1 -10.3630 128.527 20 2 8 297
1977118S08134 1977 37 SI WA VERNA 1977-05-02 21:00:00 TS -10.1839 128.170 main 213 170 ______P_______ -1 -10.1839 128.170 20 2 8 297
1977118S08134 1977 37 SI WA VERNA 1977-05-03 00:00:00 TS -10.0000 127.800 20 1006 bom main 170 ______O_______ -1 -10.0000 127.800 20 20 1006 1.00000 45 45 8 297

IBTrACS Databaseについて

本データベースは、米国NOAAが公開する1842年以降の世界の熱帯低気圧のベストトラックデータアーカイブInternational Best Track Archive for Climate Stewardship (IBTrACS)を、ウェブで閲覧しやすい形式に変換したものです。

最終更新日:2021-10-25